sensor_id;sensor_type;location;lat;lon;timestamp;P1;durP1;ratioP1;P2;durP2;ratioP2
37001;SDS011;22913;51.910;8.374;2022-09-28T00:00:54;7.03;;;5.53;;
37001;SDS011;22913;51.910;8.374;2022-09-28T00:03:40;5.97;;;5.40;;
37001;SDS011;22913;51.910;8.374;2022-09-28T00:06:28;5.83;;;5.33;;
37001;SDS011;22913;51.910;8.374;2022-09-28T00:09:14;6.30;;;5.70;;
37001;SDS011;22913;51.910;8.374;2022-09-28T00:12:01;5.90;;;5.30;;
37001;SDS011;22913;51.910;8.374;2022-09-28T00:14:51;6.47;;;5.33;;
37001;SDS011;22913;51.910;8.374;2022-09-28T00:17:38;5.80;;;5.10;;
37001;SDS011;22913;51.910;8.374;2022-09-28T00:20:27;5.97;;;5.37;;
37001;SDS011;22913;51.910;8.374;2022-09-28T00:23:15;6.70;;;5.37;;
37001;SDS011;22913;51.910;8.374;2022-09-28T00:26:04;6.07;;;5.50;;
37001;SDS011;22913;51.910;8.374;2022-09-28T00:28:50;8.03;;;5.73;;
37001;SDS011;22913;51.910;8.374;2022-09-28T00:31:36;7.73;;;5.70;;
37001;SDS011;22913;51.910;8.374;2022-09-28T00:34:22;6.13;;;5.63;;
37001;SDS011;22913;51.910;8.374;2022-09-28T00:37:08;6.67;;;6.07;;
37001;SDS011;22913;51.910;8.374;2022-09-28T00:39:55;9.07;;;6.87;;
37001;SDS011;22913;51.910;8.374;2022-09-28T00:42:41;8.63;;;6.30;;
37001;SDS011;22913;51.910;8.374;2022-09-28T00:45:27;8.03;;;6.93;;
37001;SDS011;22913;51.910;8.374;2022-09-28T00:48:13;7.47;;;5.90;;
37001;SDS011;22913;51.910;8.374;2022-09-28T00:50:59;6.97;;;5.60;;
37001;SDS011;22913;51.910;8.374;2022-09-28T00:53:47;8.93;;;6.77;;
37001;SDS011;22913;51.910;8.374;2022-09-28T00:56:36;9.83;;;6.33;;
37001;SDS011;22913;51.910;8.374;2022-09-28T00:59:26;6.90;;;6.23;;
37001;SDS011;22913;51.910;8.374;2022-09-28T01:02:12;7.00;;;6.30;;
37001;SDS011;22913;51.910;8.374;2022-09-28T01:04:58;8.83;;;6.30;;
37001;SDS011;22913;51.910;8.374;2022-09-28T01:07:45;6.83;;;6.23;;
37001;SDS011;22913;51.910;8.374;2022-09-28T01:10:31;7.17;;;6.03;;
37001;SDS011;22913;51.910;8.374;2022-09-28T01:13:19;7.40;;;5.73;;
37001;SDS011;22913;51.910;8.374;2022-09-28T01:16:08;4.93;;;4.20;;
37001;SDS011;22913;51.910;8.374;2022-09-28T01:18:59;2.50;;;2.40;;
37001;SDS011;22913;51.910;8.374;2022-09-28T01:21:58;1.47;;;1.47;;
37001;SDS011;22913;51.910;8.374;2022-09-28T01:24:55;1.13;;;1.13;;
37001;SDS011;22913;51.910;8.374;2022-09-28T01:27:46;1.90;;;1.10;;
37001;SDS011;22913;51.910;8.374;2022-09-28T01:30:37;0.87;;;0.87;;
37001;SDS011;22913;51.910;8.374;2022-09-28T01:33:27;1.00;;;1.00;;
37001;SDS011;22913;51.910;8.374;2022-09-28T01:36:20;4.63;;;1.20;;
37001;SDS011;22913;51.910;8.374;2022-09-28T01:39:10;1.93;;;1.10;;
37001;SDS011;22913;51.910;8.374;2022-09-28T01:42:02;1.30;;;1.20;;
37001;SDS011;22913;51.910;8.374;2022-09-28T01:44:51;2.97;;;1.33;;
37001;SDS011;22913;51.910;8.374;2022-09-28T01:47:40;1.63;;;1.30;;
37001;SDS011;22913;51.910;8.374;2022-09-28T01:50:29;1.83;;;1.73;;
37001;SDS011;22913;51.910;8.374;2022-09-28T01:53:21;1.50;;;1.47;;
37001;SDS011;22913;51.910;8.374;2022-09-28T01:56:10;1.70;;;1.50;;
37001;SDS011;22913;51.910;8.374;2022-09-28T01:59:01;3.80;;;1.57;;
37001;SDS011;22913;51.910;8.374;2022-09-28T02:01:52;1.70;;;1.60;;
37001;SDS011;22913;51.910;8.374;2022-09-28T02:04:41;1.40;;;1.40;;
37001;SDS011;22913;51.910;8.374;2022-09-28T02:07:31;2.13;;;1.50;;
37001;SDS011;22913;51.910;8.374;2022-09-28T02:10:21;1.10;;;1.10;;
37001;SDS011;22913;51.910;8.374;2022-09-28T02:13:11;1.73;;;1.63;;
37001;SDS011;22913;51.910;8.374;2022-09-28T02:16:01;1.50;;;1.50;;
37001;SDS011;22913;51.910;8.374;2022-09-28T02:18:50;1.80;;;1.70;;
37001;SDS011;22913;51.910;8.374;2022-09-28T02:21:38;1.77;;;1.67;;
37001;SDS011;22913;51.910;8.374;2022-09-28T02:24:30;1.73;;;1.63;;
37001;SDS011;22913;51.910;8.374;2022-09-28T02:27:24;2.00;;;1.90;;
37001;SDS011;22913;51.910;8.374;2022-09-28T02:30:17;3.07;;;1.93;;
37001;SDS011;22913;51.910;8.374;2022-09-28T02:33:04;1.53;;;1.53;;
37001;SDS011;22913;51.910;8.374;2022-09-28T02:35:58;2.40;;;2.30;;
37001;SDS011;22913;51.910;8.374;2022-09-28T02:38:44;2.50;;;2.30;;
37001;SDS011;22913;51.910;8.374;2022-09-28T02:41:33;2.50;;;2.40;;
37001;SDS011;22913;51.910;8.374;2022-09-28T02:44:42;3.10;;;2.43;;
37001;SDS011;22913;51.910;8.374;2022-09-28T02:47:47;2.37;;;2.17;;
37001;SDS011;22913;51.910;8.374;2022-09-28T02:50:45;2.20;;;2.10;;
37001;SDS011;22913;51.910;8.374;2022-09-28T02:53:48;2.40;;;2.30;;
37001;SDS011;22913;51.910;8.374;2022-09-28T02:56:54;2.53;;;2.33;;
37001;SDS011;22913;51.910;8.374;2022-09-28T02:59:53;2.77;;;2.57;;
37001;SDS011;22913;51.910;8.374;2022-09-28T03:02:48;2.47;;;2.37;;
37001;SDS011;22913;51.910;8.374;2022-09-28T03:05:46;2.87;;;2.67;;
37001;SDS011;22913;51.910;8.374;2022-09-28T03:08:39;2.70;;;2.50;;
37001;SDS011;22913;51.910;8.374;2022-09-28T03:11:31;3.20;;;2.90;;
37001;SDS011;22913;51.910;8.374;2022-09-28T03:14:21;3.73;;;3.43;;
37001;SDS011;22913;51.910;8.374;2022-09-28T03:17:07;3.87;;;3.57;;
37001;SDS011;22913;51.910;8.374;2022-09-28T03:19:53;4.30;;;4.00;;
37001;SDS011;22913;51.910;8.374;2022-09-28T03:22:38;4.33;;;3.93;;
37001;SDS011;22913;51.910;8.374;2022-09-28T03:25:24;4.53;;;4.13;;
37001;SDS011;22913;51.910;8.374;2022-09-28T03:28:11;5.13;;;4.63;;
37001;SDS011;22913;51.910;8.374;2022-09-28T03:30:56;6.83;;;6.13;;
37001;SDS011;22913;51.910;8.374;2022-09-28T03:33:42;7.57;;;6.80;;
37001;SDS011;22913;51.910;8.374;2022-09-28T03:36:27;8.57;;;7.67;;
37001;SDS011;22913;51.910;8.374;2022-09-28T03:39:13;9.53;;;8.57;;
37001;SDS011;22913;51.910;8.374;2022-09-28T03:41:59;10.33;;;9.20;;
37001;SDS011;22913;51.910;8.374;2022-09-28T03:44:46;12.83;;;10.57;;
37001;SDS011;22913;51.910;8.374;2022-09-28T03:47:32;11.40;;;9.53;;
37001;SDS011;22913;51.910;8.374;2022-09-28T03:50:17;11.13;;;10.03;;
37001;SDS011;22913;51.910;8.374;2022-09-28T03:53:03;11.63;;;9.87;;
37001;SDS011;22913;51.910;8.374;2022-09-28T03:55:49;12.50;;;10.33;;
37001;SDS011;22913;51.910;8.374;2022-09-28T03:58:36;11.53;;;10.33;;
37001;SDS011;22913;51.910;8.374;2022-09-28T04:01:23;11.53;;;9.40;;
37001;SDS011;22913;51.910;8.374;2022-09-28T04:04:09;10.43;;;9.37;;
37001;SDS011;22913;51.910;8.374;2022-09-28T04:06:55;11.90;;;10.80;;
37001;SDS011;22913;51.910;8.374;2022-09-28T04:09:41;12.73;;;10.60;;
37001;SDS011;22913;51.910;8.374;2022-09-28T04:12:27;11.37;;;10.27;;
37001;SDS011;22913;51.910;8.374;2022-09-28T04:15:12;11.23;;;10.13;;
37001;SDS011;22913;51.910;8.374;2022-09-28T04:17:59;12.37;;;11.03;;
37001;SDS011;22913;51.910;8.374;2022-09-28T04:20:45;15.10;;;11.23;;
37001;SDS011;22913;51.910;8.374;2022-09-28T04:23:31;13.53;;;11.63;;
37001;SDS011;22913;51.910;8.374;2022-09-28T04:26:17;14.33;;;12.43;;
37001;SDS011;22913;51.910;8.374;2022-09-28T04:29:07;14.93;;;13.30;;
37001;SDS011;22913;51.910;8.374;2022-09-28T04:32:01;14.67;;;13.13;;
37001;SDS011;22913;51.910;8.374;2022-09-28T04:34:49;16.77;;;14.70;;
37001;SDS011;22913;51.910;8.374;2022-09-28T04:37:35;14.50;;;13.07;;
37001;SDS011;22913;51.910;8.374;2022-09-28T04:40:21;14.57;;;12.80;;
37001;SDS011;22913;51.910;8.374;2022-09-28T04:43:06;15.43;;;13.13;;
37001;SDS011;22913;51.910;8.374;2022-09-28T04:45:56;17.37;;;15.37;;
37001;SDS011;22913;51.910;8.374;2022-09-28T04:48:42;15.60;;;13.90;;
37001;SDS011;22913;51.910;8.374;2022-09-28T04:51:30;15.70;;;14.03;;
37001;SDS011;22913;51.910;8.374;2022-09-28T04:54:16;16.30;;;13.97;;
37001;SDS011;22913;51.910;8.374;2022-09-28T04:57:02;19.60;;;14.47;;
37001;SDS011;22913;51.910;8.374;2022-09-28T04:59:48;17.97;;;15.27;;
37001;SDS011;22913;51.910;8.374;2022-09-28T05:02:34;17.70;;;15.07;;
37001;SDS011;22913;51.910;8.374;2022-09-28T05:05:20;17.43;;;15.70;;
37001;SDS011;22913;51.910;8.374;2022-09-28T05:08:07;17.03;;;15.03;;
37001;SDS011;22913;51.910;8.374;2022-09-28T05:10:55;17.00;;;15.30;;
37001;SDS011;22913;51.910;8.374;2022-09-28T05:13:43;16.53;;;14.83;;
37001;SDS011;22913;51.910;8.374;2022-09-28T05:16:29;16.57;;;14.90;;
37001;SDS011;22913;51.910;8.374;2022-09-28T05:19:16;17.80;;;15.93;;
37001;SDS011;22913;51.910;8.374;2022-09-28T05:22:01;17.30;;;15.30;;
37001;SDS011;22913;51.910;8.374;2022-09-28T05:24:50;18.07;;;16.17;;
37001;SDS011;22913;51.910;8.374;2022-09-28T05:27:37;18.50;;;16.17;;
37001;SDS011;22913;51.910;8.374;2022-09-28T05:30:23;16.83;;;15.13;;
37001;SDS011;22913;51.910;8.374;2022-09-28T05:33:08;16.93;;;15.13;;
37001;SDS011;22913;51.910;8.374;2022-09-28T05:35:54;18.13;;;15.90;;
37001;SDS011;22913;51.910;8.374;2022-09-28T05:38:40;20.03;;;16.17;;
37001;SDS011;22913;51.910;8.374;2022-09-28T05:41:27;18.93;;;16.07;;
37001;SDS011;22913;51.910;8.374;2022-09-28T05:44:12;18.63;;;15.17;;
37001;SDS011;22913;51.910;8.374;2022-09-28T05:46:58;18.20;;;15.40;;
37001;SDS011;22913;51.910;8.374;2022-09-28T05:49:43;19.17;;;16.07;;
37001;SDS011;22913;51.910;8.374;2022-09-28T05:52:29;19.17;;;16.67;;
37001;SDS011;22913;51.910;8.374;2022-09-28T05:55:15;17.53;;;15.53;;
37001;SDS011;22913;51.910;8.374;2022-09-28T05:58:03;19.10;;;17.20;;
37001;SDS011;22913;51.910;8.374;2022-09-28T06:00:52;16.93;;;15.20;;
37001;SDS011;22913;51.910;8.374;2022-09-28T06:03:38;18.93;;;16.63;;
37001;SDS011;22913;51.910;8.374;2022-09-28T06:06:23;18.43;;;16.47;;
37001;SDS011;22913;51.910;8.374;2022-09-28T06:09:09;21.17;;;16.70;;
37001;SDS011;22913;51.910;8.374;2022-09-28T06:11:56;19.93;;;17.53;;
37001;SDS011;22913;51.910;8.374;2022-09-28T06:14:44;18.57;;;16.67;;
37001;SDS011;22913;51.910;8.374;2022-09-28T06:17:30;18.40;;;16.33;;
37001;SDS011;22913;51.910;8.374;2022-09-28T06:20:15;19.30;;;16.20;;
37001;SDS011;22913;51.910;8.374;2022-09-28T06:23:01;17.33;;;15.53;;
37001;SDS011;22913;51.910;8.374;2022-09-28T06:25:46;18.60;;;15.97;;
37001;SDS011;22913;51.910;8.374;2022-09-28T06:28:32;19.63;;;16.57;;
37001;SDS011;22913;51.910;8.374;2022-09-28T06:31:19;18.50;;;16.57;;
37001;SDS011;22913;51.910;8.374;2022-09-28T06:34:05;18.57;;;16.67;;
37001;SDS011;22913;51.910;8.374;2022-09-28T06:36:53;17.43;;;15.63;;
37001;SDS011;22913;51.910;8.374;2022-09-28T06:39:39;17.80;;;16.00;;
37001;SDS011;22913;51.910;8.374;2022-09-28T06:42:24;16.43;;;14.83;;
37001;SDS011;22913;51.910;8.374;2022-09-28T06:45:10;17.53;;;15.77;;
37001;SDS011;22913;51.910;8.374;2022-09-28T06:47:58;19.90;;;16.47;;
37001;SDS011;22913;51.910;8.374;2022-09-28T06:50:44;16.90;;;15.17;;
37001;SDS011;22913;51.910;8.374;2022-09-28T06:53:30;16.70;;;15.07;;
37001;SDS011;22913;51.910;8.374;2022-09-28T06:56:16;17.07;;;15.20;;
37001;SDS011;22913;51.910;8.374;2022-09-28T06:59:02;17.00;;;15.20;;
37001;SDS011;22913;51.910;8.374;2022-09-28T07:01:47;21.87;;;15.50;;
37001;SDS011;22913;51.910;8.374;2022-09-28T07:04:34;16.80;;;15.10;;
37001;SDS011;22913;51.910;8.374;2022-09-28T07:07:20;16.13;;;14.50;;
37001;SDS011;22913;51.910;8.374;2022-09-28T07:10:07;16.27;;;14.67;;
37001;SDS011;22913;51.910;8.374;2022-09-28T07:12:54;16.00;;;14.30;;
37001;SDS011;22913;51.910;8.374;2022-09-28T07:15:40;14.13;;;12.73;;
37001;SDS011;22913;51.910;8.374;2022-09-28T07:18:26;15.67;;;14.07;;
37001;SDS011;22913;51.910;8.374;2022-09-28T07:21:13;16.23;;;14.43;;
37001;SDS011;22913;51.910;8.374;2022-09-28T07:24:00;15.13;;;13.63;;
37001;SDS011;22913;51.910;8.374;2022-09-28T07:26:46;16.30;;;14.63;;
37001;SDS011;22913;51.910;8.374;2022-09-28T07:29:31;15.97;;;14.27;;
37001;SDS011;22913;51.910;8.374;2022-09-28T07:32:17;16.07;;;14.37;;
37001;SDS011;22913;51.910;8.374;2022-09-28T07:35:03;16.90;;;13.63;;
37001;SDS011;22913;51.910;8.374;2022-09-28T07:37:56;14.60;;;13.13;;
37001;SDS011;22913;51.910;8.374;2022-09-28T07:40:44;13.60;;;12.37;;
37001;SDS011;22913;51.910;8.374;2022-09-28T07:43:48;14.13;;;12.73;;
37001;SDS011;22913;51.910;8.374;2022-09-28T07:46:34;13.50;;;12.10;;
37001;SDS011;22913;51.910;8.374;2022-09-28T07:49:20;13.83;;;12.53;;
37001;SDS011;22913;51.910;8.374;2022-09-28T07:52:06;13.73;;;12.33;;
37001;SDS011;22913;51.910;8.374;2022-09-28T07:54:53;13.63;;;12.10;;
37001;SDS011;22913;51.910;8.374;2022-09-28T07:57:39;13.43;;;12.03;;
37001;SDS011;22913;51.910;8.374;2022-09-28T08:00:25;13.57;;;12.27;;
37001;SDS011;22913;51.910;8.374;2022-09-28T08:03:11;13.50;;;12.10;;
37001;SDS011;22913;51.910;8.374;2022-09-28T08:05:57;12.80;;;11.60;;
37001;SDS011;22913;51.910;8.374;2022-09-28T08:08:43;16.77;;;13.67;;
37001;SDS011;22913;51.910;8.374;2022-09-28T08:11:30;13.47;;;12.07;;
37001;SDS011;22913;51.910;8.374;2022-09-28T08:14:16;14.30;;;12.97;;
37001;SDS011;22913;51.910;8.374;2022-09-28T08:17:02;14.47;;;13.00;;
37001;SDS011;22913;51.910;8.374;2022-09-28T08:19:48;14.67;;;13.27;;
37001;SDS011;22913;51.910;8.374;2022-09-28T08:22:51;13.33;;;12.00;;
37001;SDS011;22913;51.910;8.374;2022-09-28T08:25:37;13.20;;;11.97;;
37001;SDS011;22913;51.910;8.374;2022-09-28T08:28:24;14.00;;;12.57;;
37001;SDS011;22913;51.910;8.374;2022-09-28T08:31:10;14.03;;;12.73;;
37001;SDS011;22913;51.910;8.374;2022-09-28T08:33:55;13.97;;;12.50;;
37001;SDS011;22913;51.910;8.374;2022-09-28T08:36:41;13.03;;;11.77;;
37001;SDS011;22913;51.910;8.374;2022-09-28T08:39:27;14.77;;;12.80;;
37001;SDS011;22913;51.910;8.374;2022-09-28T08:42:16;12.63;;;11.43;;
37001;SDS011;22913;51.910;8.374;2022-09-28T08:45:17;12.23;;;11.13;;
37001;SDS011;22913;51.910;8.374;2022-09-28T08:48:08;12.57;;;11.43;;
37001;SDS011;22913;51.910;8.374;2022-09-28T08:51:16;13.00;;;11.20;;
37001;SDS011;22913;51.910;8.374;2022-09-28T08:54:05;12.53;;;11.33;;
37001;SDS011;22913;51.910;8.374;2022-09-28T08:56:57;13.50;;;11.70;;
37001;SDS011;22913;51.910;8.374;2022-09-28T08:59:47;12.93;;;11.67;;
37001;SDS011;22913;51.910;8.374;2022-09-28T09:02:37;12.40;;;11.30;;
37001;SDS011;22913;51.910;8.374;2022-09-28T09:05:26;13.10;;;11.80;;
37001;SDS011;22913;51.910;8.374;2022-09-28T09:08:33;14.03;;;12.70;;
37001;SDS011;22913;51.910;8.374;2022-09-28T09:11:31;14.10;;;12.80;;
37001;SDS011;22913;51.910;8.374;2022-09-28T09:18:02;14.10;;;12.67;;
37001;SDS011;22913;51.910;8.374;2022-09-28T09:21:00;13.80;;;12.27;;
37001;SDS011;22913;51.910;8.374;2022-09-28T09:23:53;13.33;;;11.33;;
37001;SDS011;22913;51.910;8.374;2022-09-28T09:26:39;11.13;;;10.10;;
37001;SDS011;22913;51.910;8.374;2022-09-28T09:29:28;12.57;;;11.33;;
37001;SDS011;22913;51.910;8.374;2022-09-28T09:32:23;13.50;;;12.30;;
37001;SDS011;22913;51.910;8.374;2022-09-28T09:35:23;13.43;;;12.03;;
37001;SDS011;22913;51.910;8.374;2022-09-28T09:38:19;13.80;;;11.73;;
37001;SDS011;22913;51.910;8.374;2022-09-28T09:41:21;13.93;;;12.23;;
37001;SDS011;22913;51.910;8.374;2022-09-28T09:44:21;14.73;;;13.07;;
37001;SDS011;22913;51.910;8.374;2022-09-28T09:47:23;13.93;;;12.63;;
37001;SDS011;22913;51.910;8.374;2022-09-28T09:50:16;12.90;;;11.80;;
37001;SDS011;22913;51.910;8.374;2022-09-28T09:53:15;15.60;;;12.67;;
37001;SDS011;22913;51.910;8.374;2022-09-28T09:56:06;13.23;;;11.83;;
37001;SDS011;22913;51.910;8.374;2022-09-28T09:58:58;14.73;;;12.43;;
37001;SDS011;22913;51.910;8.374;2022-09-28T10:01:49;12.50;;;11.23;;
37001;SDS011;22913;51.910;8.374;2022-09-28T10:04:38;13.00;;;11.07;;
37001;SDS011;22913;51.910;8.374;2022-09-28T10:07:28;11.80;;;10.77;;
37001;SDS011;22913;51.910;8.374;2022-09-28T10:10:23;12.77;;;11.57;;
37001;SDS011;22913;51.910;8.374;2022-09-28T10:13:11;12.57;;;11.37;;
37001;SDS011;22913;51.910;8.374;2022-09-28T10:15:56;12.47;;;11.27;;
37001;SDS011;22913;51.910;8.374;2022-09-28T10:18:42;11.97;;;10.97;;
37001;SDS011;22913;51.910;8.374;2022-09-28T10:21:28;11.63;;;10.60;;
37001;SDS011;22913;51.910;8.374;2022-09-28T10:24:15;11.47;;;10.43;;
37001;SDS011;22913;51.910;8.374;2022-09-28T10:27:10;11.57;;;10.47;;
37001;SDS011;22913;51.910;8.374;2022-09-28T10:30:00;11.50;;;10.40;;
37001;SDS011;22913;51.910;8.374;2022-09-28T10:32:55;11.47;;;10.23;;
37001;SDS011;22913;51.910;8.374;2022-09-28T10:35:44;11.57;;;10.40;;
37001;SDS011;22913;51.910;8.374;2022-09-28T10:38:30;10.70;;;9.67;;
37001;SDS011;22913;51.910;8.374;2022-09-28T10:41:17;11.03;;;9.90;;
37001;SDS011;22913;51.910;8.374;2022-09-28T10:44:04;11.47;;;10.37;;
37001;SDS011;22913;51.910;8.374;2022-09-28T10:46:54;11.03;;;10.00;;
37001;SDS011;22913;51.910;8.374;2022-09-28T10:49:43;12.03;;;10.60;;
37001;SDS011;22913;51.910;8.374;2022-09-28T10:52:32;14.17;;;10.97;;
37001;SDS011;22913;51.910;8.374;2022-09-28T10:55:24;10.60;;;9.53;;
37001;SDS011;22913;51.910;8.374;2022-09-28T10:58:21;10.10;;;9.10;;
37001;SDS011;22913;51.910;8.374;2022-09-28T11:01:12;9.80;;;8.80;;
37001;SDS011;22913;51.910;8.374;2022-09-28T11:04:01;8.33;;;7.57;;
37001;SDS011;22913;51.910;8.374;2022-09-28T11:06:50;7.60;;;6.73;;
37001;SDS011;22913;51.910;8.374;2022-09-28T11:09:40;8.13;;;7.30;;
37001;SDS011;22913;51.910;8.374;2022-09-28T11:12:27;8.63;;;7.83;;
37001;SDS011;22913;51.910;8.374;2022-09-28T11:15:17;8.33;;;7.23;;
37001;SDS011;22913;51.910;8.374;2022-09-28T11:18:19;9.43;;;7.43;;
37001;SDS011;22913;51.910;8.374;2022-09-28T11:21:13;8.67;;;7.77;;
37001;SDS011;22913;51.910;8.374;2022-09-28T11:24:01;10.97;;;8.70;;
37001;SDS011;22913;51.910;8.374;2022-09-28T11:26:53;8.73;;;8.03;;
37001;SDS011;22913;51.910;8.374;2022-09-28T11:29:40;8.60;;;7.80;;
37001;SDS011;22913;51.910;8.374;2022-09-28T11:32:30;9.37;;;8.37;;
37001;SDS011;22913;51.910;8.374;2022-09-28T11:35:26;8.80;;;7.93;;
37001;SDS011;22913;51.910;8.374;2022-09-28T11:38:30;9.97;;;9.03;;
37001;SDS011;22913;51.910;8.374;2022-09-28T11:41:26;9.07;;;8.13;;
37001;SDS011;22913;51.910;8.374;2022-09-28T11:44:35;9.67;;;8.47;;
37001;SDS011;22913;51.910;8.374;2022-09-28T11:47:32;9.00;;;8.10;;
37001;SDS011;22913;51.910;8.374;2022-09-28T11:50:32;9.73;;;8.03;;
37001;SDS011;22913;51.910;8.374;2022-09-28T11:53:28;9.93;;;8.37;;
37001;SDS011;22913;51.910;8.374;2022-09-28T11:56:22;9.07;;;8.20;;
37001;SDS011;22913;51.910;8.374;2022-09-28T11:59:17;9.50;;;8.50;;
37001;SDS011;22913;51.910;8.374;2022-09-28T12:02:09;9.73;;;8.83;;
37001;SDS011;22913;51.910;8.374;2022-09-28T12:05:01;9.20;;;8.30;;
37001;SDS011;22913;51.910;8.374;2022-09-28T12:07:58;8.63;;;7.13;;
37001;SDS011;22913;51.910;8.374;2022-09-28T12:10:50;10.23;;;6.10;;
37001;SDS011;22913;51.910;8.374;2022-09-28T12:13:40;7.07;;;6.37;;
37001;SDS011;22913;51.910;8.374;2022-09-28T12:16:29;6.23;;;5.63;;
37001;SDS011;22913;51.910;8.374;2022-09-28T12:19:19;7.27;;;6.03;;
37001;SDS011;22913;51.910;8.374;2022-09-28T12:22:10;6.20;;;5.60;;
37001;SDS011;22913;51.910;8.374;2022-09-28T12:25:02;6.47;;;5.87;;
37001;SDS011;22913;51.910;8.374;2022-09-28T12:27:55;7.23;;;6.70;;
37001;SDS011;22913;51.910;8.374;2022-09-28T12:30:44;7.00;;;6.30;;
37001;SDS011;22913;51.910;8.374;2022-09-28T12:33:31;7.07;;;6.37;;
37001;SDS011;22913;51.910;8.374;2022-09-28T12:36:20;7.13;;;6.43;;
37001;SDS011;22913;51.910;8.374;2022-09-28T12:39:22;6.27;;;5.77;;
37001;SDS011;22913;51.910;8.374;2022-09-28T12:42:23;6.63;;;6.03;;
37001;SDS011;22913;51.910;8.374;2022-09-28T12:45:28;6.27;;;5.70;;
37001;SDS011;22913;51.910;8.374;2022-09-28T12:48:31;8.77;;;5.33;;
37001;SDS011;22913;51.910;8.374;2022-09-28T12:51:37;6.10;;;5.50;;
37001;SDS011;22913;51.910;8.374;2022-09-28T12:54:37;6.70;;;6.10;;
37001;SDS011;22913;51.910;8.374;2022-09-28T12:57:48;7.23;;;6.53;;
37001;SDS011;22913;51.910;8.374;2022-09-28T13:00:44;7.23;;;6.30;;
37001;SDS011;22913;51.910;8.374;2022-09-28T13:03:50;7.33;;;6.63;;
37001;SDS011;22913;51.910;8.374;2022-09-28T13:07:08;9.27;;;6.57;;
37001;SDS011;22913;51.910;8.374;2022-09-28T13:10:05;7.83;;;7.03;;
37001;SDS011;22913;51.910;8.374;2022-09-28T13:13:09;7.67;;;6.93;;
37001;SDS011;22913;51.910;8.374;2022-09-28T13:16:04;8.20;;;7.43;;
37001;SDS011;22913;51.910;8.374;2022-09-28T13:18:55;8.07;;;7.27;;
37001;SDS011;22913;51.910;8.374;2022-09-28T13:21:51;6.43;;;5.80;;
37001;SDS011;22913;51.910;8.374;2022-09-28T13:24:43;6.00;;;5.30;;
37001;SDS011;22913;51.910;8.374;2022-09-28T13:27:32;7.00;;;5.57;;
37001;SDS011;22913;51.910;8.374;2022-09-28T13:30:21;6.23;;;5.63;;
37001;SDS011;22913;51.910;8.374;2022-09-28T13:33:12;6.37;;;5.77;;
37001;SDS011;22913;51.910;8.374;2022-09-28T13:36:02;6.37;;;5.77;;
37001;SDS011;22913;51.910;8.374;2022-09-28T13:42:21;6.93;;;5.80;;
37001;SDS011;22913;51.910;8.374;2022-09-28T13:48:35;7.00;;;5.50;;
37001;SDS011;22913;51.910;8.374;2022-09-28T13:51:35;7.57;;;5.57;;
37001;SDS011;22913;51.910;8.374;2022-09-28T13:54:29;6.23;;;5.63;;
37001;SDS011;22913;51.910;8.374;2022-09-28T13:57:40;7.00;;;6.30;;
37001;SDS011;22913;51.910;8.374;2022-09-28T14:00:31;7.30;;;5.90;;
37001;SDS011;22913;51.910;8.374;2022-09-28T14:03:24;5.90;;;5.30;;
37001;SDS011;22913;51.910;8.374;2022-09-28T14:06:22;6.07;;;5.50;;
37001;SDS011;22913;51.910;8.374;2022-09-28T14:09:26;6.67;;;5.27;;
37001;SDS011;22913;51.910;8.374;2022-09-28T14:12:29;6.83;;;5.20;;
37001;SDS011;22913;51.910;8.374;2022-09-28T14:15:41;5.23;;;4.73;;
37001;SDS011;22913;51.910;8.374;2022-09-28T14:18:30;5.33;;;4.57;;
37001;SDS011;22913;51.910;8.374;2022-09-28T14:21:38;5.53;;;4.87;;
37001;SDS011;22913;51.910;8.374;2022-09-28T14:24:54;5.73;;;5.30;;
37001;SDS011;22913;51.910;8.374;2022-09-28T14:27:59;7.07;;;6.37;;
37001;SDS011;22913;51.910;8.374;2022-09-28T14:30:49;5.43;;;4.93;;
37001;SDS011;22913;51.910;8.374;2022-09-28T14:33:39;7.03;;;5.30;;
37001;SDS011;22913;51.910;8.374;2022-09-28T14:36:26;5.93;;;5.33;;
37001;SDS011;22913;51.910;8.374;2022-09-28T14:39:36;6.87;;;5.83;;
37001;SDS011;22913;51.910;8.374;2022-09-28T14:42:40;5.50;;;5.00;;
37001;SDS011;22913;51.910;8.374;2022-09-28T14:52:37;7.30;;;5.87;;
37001;SDS011;22913;51.910;8.374;2022-09-28T14:55:28;8.13;;;5.47;;
37001;SDS011;22913;51.910;8.374;2022-09-28T14:58:17;8.67;;;5.50;;
37001;SDS011;22913;51.910;8.374;2022-09-28T15:01:06;6.23;;;5.10;;
37001;SDS011;22913;51.910;8.374;2022-09-28T15:04:00;6.13;;;5.50;;
37001;SDS011;22913;51.910;8.374;2022-09-28T15:06:49;9.40;;;5.83;;
37001;SDS011;22913;51.910;8.374;2022-09-28T15:09:36;5.50;;;5.00;;
37001;SDS011;22913;51.910;8.374;2022-09-28T15:12:24;5.57;;;5.07;;
37001;SDS011;22913;51.910;8.374;2022-09-28T15:15:16;5.87;;;5.37;;
37001;SDS011;22913;51.910;8.374;2022-09-28T15:18:13;6.53;;;5.87;;
37001;SDS011;22913;51.910;8.374;2022-09-28T15:21:10;6.17;;;5.60;;
37001;SDS011;22913;51.910;8.374;2022-09-28T15:23:58;8.63;;;5.70;;
37001;SDS011;22913;51.910;8.374;2022-09-28T15:26:46;6.00;;;5.40;;
37001;SDS011;22913;51.910;8.374;2022-09-28T15:29:32;5.00;;;4.57;;
37001;SDS011;22913;51.910;8.374;2022-09-28T15:32:22;8.23;;;5.13;;
37001;SDS011;22913;51.910;8.374;2022-09-28T15:35:10;7.17;;;5.60;;
37001;SDS011;22913;51.910;8.374;2022-09-28T15:37:57;6.30;;;5.70;;
37001;SDS011;22913;51.910;8.374;2022-09-28T15:40:43;7.87;;;5.90;;
37001;SDS011;22913;51.910;8.374;2022-09-28T15:43:30;6.73;;;5.50;;
37001;SDS011;22913;51.910;8.374;2022-09-28T15:46:19;7.17;;;5.50;;
37001;SDS011;22913;51.910;8.374;2022-09-28T15:49:05;5.97;;;5.47;;
37001;SDS011;22913;51.910;8.374;2022-09-28T15:52:03;6.67;;;5.43;;
37001;SDS011;22913;51.910;8.374;2022-09-28T15:54:50;6.80;;;5.60;;
37001;SDS011;22913;51.910;8.374;2022-09-28T15:57:38;5.57;;;5.17;;
37001;SDS011;22913;51.910;8.374;2022-09-28T16:00:25;6.97;;;5.53;;
37001;SDS011;22913;51.910;8.374;2022-09-28T16:03:23;5.90;;;5.00;;
37001;SDS011;22913;51.910;8.374;2022-09-28T16:06:13;5.50;;;5.00;;
37001;SDS011;22913;51.910;8.374;2022-09-28T16:08:59;7.33;;;4.77;;
37001;SDS011;22913;51.910;8.374;2022-09-28T16:11:45;9.17;;;5.53;;
37001;SDS011;22913;51.910;8.374;2022-09-28T16:14:32;5.43;;;4.97;;
37001;SDS011;22913;51.910;8.374;2022-09-28T16:17:19;7.30;;;6.33;;
37001;SDS011;22913;51.910;8.374;2022-09-28T16:20:24;5.90;;;5.27;;
37001;SDS011;22913;51.910;8.374;2022-09-28T16:23:16;6.33;;;5.63;;
37001;SDS011;22913;51.910;8.374;2022-09-28T16:26:10;6.20;;;5.57;;
37001;SDS011;22913;51.910;8.374;2022-09-28T16:29:14;7.60;;;5.67;;
37001;SDS011;22913;51.910;8.374;2022-09-28T16:35:21;6.20;;;5.57;;
37001;SDS011;22913;51.910;8.374;2022-09-28T16:38:09;6.90;;;5.90;;
37001;SDS011;22913;51.910;8.374;2022-09-28T16:40:56;11.67;;;6.17;;
37001;SDS011;22913;51.910;8.374;2022-09-28T16:43:45;7.13;;;6.30;;
37001;SDS011;22913;51.910;8.374;2022-09-28T16:46:32;9.20;;;6.70;;
37001;SDS011;22913;51.910;8.374;2022-09-28T16:49:22;14.23;;;6.70;;
37001;SDS011;22913;51.910;8.374;2022-09-28T16:52:09;16.23;;;8.20;;
37001;SDS011;22913;51.910;8.374;2022-09-28T16:54:56;25.53;;;9.87;;
37001;SDS011;22913;51.910;8.374;2022-09-28T16:57:58;8.70;;;7.50;;
37001;SDS011;22913;51.910;8.374;2022-09-28T17:00:47;10.43;;;7.17;;
37001;SDS011;22913;51.910;8.374;2022-09-28T17:03:33;10.70;;;7.43;;
37001;SDS011;22913;51.910;8.374;2022-09-28T17:06:20;14.20;;;7.53;;
37001;SDS011;22913;51.910;8.374;2022-09-28T17:09:07;7.93;;;7.13;;
37001;SDS011;22913;51.910;8.374;2022-09-28T17:11:55;11.90;;;8.00;;
37001;SDS011;22913;51.910;8.374;2022-09-28T17:14:41;11.90;;;7.70;;